sensor_id;sensor_type;location;lat;lon;timestamp;temperature;humidity
34095;DHT22;20372;47.080;15.410;2023-03-01T00:00:45;2.20;98.40
34095;DHT22;20372;47.080;15.410;2023-03-01T00:03:12;2.20;98.50
34095;DHT22;20372;47.080;15.410;2023-03-01T00:05:43;2.10;98.80
34095;DHT22;20372;47.080;15.410;2023-03-01T00:08:08;2.00;99.20
34095;DHT22;20372;47.080;15.410;2023-03-01T00:10:34;2.00;99.70
34095;DHT22;20372;47.080;15.410;2023-03-01T00:12:59;1.90;99.90
34095;DHT22;20372;47.080;15.410;2023-03-01T00:15:25;1.90;99.90
34095;DHT22;20372;47.080;15.410;2023-03-01T00:17:50;1.90;99.90
34095;DHT22;20372;47.080;15.410;2023-03-01T00:20:16;1.80;99.90
34095;DHT22;20372;47.080;15.410;2023-03-01T00:22:42;1.80;99.90
34095;DHT22;20372;47.080;15.410;2023-03-01T00:25:07;1.70;99.90
34095;DHT22;20372;47.080;15.410;2023-03-01T00:27:33;1.70;99.90
34095;DHT22;20372;47.080;15.410;2023-03-01T00:29:58;1.80;99.90
34095;DHT22;20372;47.080;15.410;2023-03-01T00:32:24;1.70;99.90
34095;DHT22;20372;47.080;15.410;2023-03-01T00:34:49;1.70;99.90
34095;DHT22;20372;47.080;15.410;2023-03-01T00:37:21;1.70;99.90
34095;DHT22;20372;47.080;15.410;2023-03-01T00:39:46;1.70;99.90
34095;DHT22;20372;47.080;15.410;2023-03-01T00:42:12;1.80;99.90
34095;DHT22;20372;47.080;15.410;2023-03-01T00:44:37;1.90;99.90
34095;DHT22;20372;47.080;15.410;2023-03-01T00:47:03;1.90;99.90
34095;DHT22;20372;47.080;15.410;2023-03-01T00:49:29;1.90;99.90
34095;DHT22;20372;47.080;15.410;2023-03-01T00:51:54;1.80;99.90
34095;DHT22;20372;47.080;15.410;2023-03-01T00:54:20;1.80;99.90
34095;DHT22;20372;47.080;15.410;2023-03-01T00:56:45;1.80;99.90
34095;DHT22;20372;47.080;15.410;2023-03-01T00:59:11;1.80;99.90
34095;DHT22;20372;47.080;15.410;2023-03-01T01:01:37;1.90;99.90
34095;DHT22;20372;47.080;15.410;2023-03-01T01:04:04;2.00;99.90
34095;DHT22;20372;47.080;15.410;2023-03-01T01:06:31;2.00;99.90
34095;DHT22;20372;47.080;15.410;2023-03-01T01:08:57;2.00;99.90
34095;DHT22;20372;47.080;15.410;2023-03-01T01:11:23;1.90;99.90
34095;DHT22;20372;47.080;15.410;2023-03-01T01:13:49;2.00;99.90
34095;DHT22;20372;47.080;15.410;2023-03-01T01:16:15;2.00;99.90
34095;DHT22;20372;47.080;15.410;2023-03-01T01:18:41;2.20;99.90
34095;DHT22;20372;47.080;15.410;2023-03-01T01:21:08;2.20;99.70
34095;DHT22;20372;47.080;15.410;2023-03-01T01:23:34;2.20;99.60
34095;DHT22;20372;47.080;15.410;2023-03-01T01:26:04;2.20;99.90
34095;DHT22;20372;47.080;15.410;2023-03-01T01:28:29;2.20;99.70
34095;DHT22;20372;47.080;15.410;2023-03-01T01:30:55;2.20;99.90
34095;DHT22;20372;47.080;15.410;2023-03-01T01:33:20;2.20;99.90
34095;DHT22;20372;47.080;15.410;2023-03-01T01:35:46;2.20;99.90
34095;DHT22;20372;47.080;15.410;2023-03-01T01:38:11;2.20;99.90
34095;DHT22;20372;47.080;15.410;2023-03-01T01:40:46;2.20;99.90
34095;DHT22;20372;47.080;15.410;2023-03-01T01:43:23;2.20;99.90
34095;DHT22;20372;47.080;15.410;2023-03-01T01:45:49;2.10;99.90
34095;DHT22;20372;47.080;15.410;2023-03-01T01:48:21;2.10;99.90
34095;DHT22;20372;47.080;15.410;2023-03-01T01:50:54;2.20;99.90
34095;DHT22;20372;47.080;15.410;2023-03-01T01:53:20;2.20;99.90
34095;DHT22;20372;47.080;15.410;2023-03-01T01:55:51;2.20;99.90
34095;DHT22;20372;47.080;15.410;2023-03-01T01:58:19;2.00;99.90
34095;DHT22;20372;47.080;15.410;2023-03-01T02:00:45;1.80;99.90
34095;DHT22;20372;47.080;15.410;2023-03-01T02:03:14;1.80;99.90
34095;DHT22;20372;47.080;15.410;2023-03-01T02:08:17;1.80;99.90
34095;DHT22;20372;47.080;15.410;2023-03-01T02:10:43;1.70;99.90
34095;DHT22;20372;47.080;15.410;2023-03-01T02:13:09;1.70;99.90
34095;DHT22;20372;47.080;15.410;2023-03-01T02:15:36;1.80;99.90
34095;DHT22;20372;47.080;15.410;2023-03-01T02:18:02;1.80;99.90
34095;DHT22;20372;47.080;15.410;2023-03-01T02:22:54;1.80;99.90
34095;DHT22;20372;47.080;15.410;2023-03-01T02:25:40;1.80;99.90
34095;DHT22;20372;47.080;15.410;2023-03-01T02:30:44;1.80;99.90
34095;DHT22;20372;47.080;15.410;2023-03-01T02:33:29;1.90;99.90
34095;DHT22;20372;47.080;15.410;2023-03-01T02:35:58;2.00;99.90
34095;DHT22;20372;47.080;15.410;2023-03-01T02:38:25;2.00;99.90
34095;DHT22;20372;47.080;15.410;2023-03-01T02:40:50;2.00;99.90
34095;DHT22;20372;47.080;15.410;2023-03-01T02:43:16;2.00;99.90
34095;DHT22;20372;47.080;15.410;2023-03-01T02:45:47;2.00;99.90
34095;DHT22;20372;47.080;15.410;2023-03-01T02:48:13;2.00;99.90
34095;DHT22;20372;47.080;15.410;2023-03-01T02:51:22;1.90;99.90
34095;DHT22;20372;47.080;15.410;2023-03-01T02:53:29;2.10;99.90
34095;DHT22;20372;47.080;15.410;2023-03-01T02:55:57;2.10;99.90
34095;DHT22;20372;47.080;15.410;2023-03-01T02:58:24;2.10;99.90
34095;DHT22;20372;47.080;15.410;2023-03-01T03:00:50;2.10;99.90
34095;DHT22;20372;47.080;15.410;2023-03-01T03:03:16;2.10;99.90
34095;DHT22;20372;47.080;15.410;2023-03-01T03:05:42;2.00;99.90
34095;DHT22;20372;47.080;15.410;2023-03-01T03:08:08;2.20;99.90
34095;DHT22;20372;47.080;15.410;2023-03-01T03:10:35;2.20;99.90
34095;DHT22;20372;47.080;15.410;2023-03-01T03:13:02;2.20;99.90
34095;DHT22;20372;47.080;15.410;2023-03-01T03:15:28;2.20;99.90
34095;DHT22;20372;47.080;15.410;2023-03-01T03:17:54;2.20;99.90
34095;DHT22;20372;47.080;15.410;2023-03-01T03:20:20;2.20;99.90
34095;DHT22;20372;47.080;15.410;2023-03-01T03:22:47;2.20;99.90
34095;DHT22;20372;47.080;15.410;2023-03-01T03:25:13;2.20;99.90
34095;DHT22;20372;47.080;15.410;2023-03-01T03:27:40;2.40;99.90
34095;DHT22;20372;47.080;15.410;2023-03-01T03:30:06;2.40;99.90
34095;DHT22;20372;47.080;15.410;2023-03-01T03:32:37;2.50;99.90
34095;DHT22;20372;47.080;15.410;2023-03-01T03:35:03;2.60;99.90
34095;DHT22;20372;47.080;15.410;2023-03-01T03:37:38;2.60;99.90
34095;DHT22;20372;47.080;15.410;2023-03-01T03:40:23;2.60;99.90
34095;DHT22;20372;47.080;15.410;2023-03-01T03:42:48;2.60;99.90
34095;DHT22;20372;47.080;15.410;2023-03-01T03:45:15;2.50;99.90
34095;DHT22;20372;47.080;15.410;2023-03-01T03:47:41;2.50;99.90
34095;DHT22;20372;47.080;15.410;2023-03-01T03:50:06;2.50;99.90
34095;DHT22;20372;47.080;15.410;2023-03-01T03:52:32;2.50;99.90
34095;DHT22;20372;47.080;15.410;2023-03-01T03:54:57;2.50;99.90
34095;DHT22;20372;47.080;15.410;2023-03-01T03:57:23;2.50;99.90
34095;DHT22;20372;47.080;15.410;2023-03-01T03:59:48;2.60;99.90
34095;DHT22;20372;47.080;15.410;2023-03-01T04:02:14;2.50;99.90
34095;DHT22;20372;47.080;15.410;2023-03-01T04:04:49;2.40;99.90
34095;DHT22;20372;47.080;15.410;2023-03-01T04:07:15;2.40;99.90
34095;DHT22;20372;47.080;15.410;2023-03-01T04:09:42;2.40;99.90
34095;DHT22;20372;47.080;15.410;2023-03-01T04:12:08;2.40;99.90
34095;DHT22;20372;47.080;15.410;2023-03-01T04:14:33;2.50;99.90
34095;DHT22;20372;47.080;15.410;2023-03-01T04:16:59;2.40;99.90
34095;DHT22;20372;47.080;15.410;2023-03-01T04:19:25;2.40;99.90
34095;DHT22;20372;47.080;15.410;2023-03-01T04:21:52;2.30;99.90
34095;DHT22;20372;47.080;15.410;2023-03-01T04:24:18;2.30;99.90
34095;DHT22;20372;47.080;15.410;2023-03-01T04:26:43;2.30;99.90
34095;DHT22;20372;47.080;15.410;2023-03-01T04:29:09;2.10;99.90
34095;DHT22;20372;47.080;15.410;2023-03-01T04:31:34;2.10;99.90
34095;DHT22;20372;47.080;15.410;2023-03-01T04:34:00;2.00;99.90
34095;DHT22;20372;47.080;15.410;2023-03-01T04:36:27;2.00;99.90
34095;DHT22;20372;47.080;15.410;2023-03-01T04:38:53;2.00;99.90
34095;DHT22;20372;47.080;15.410;2023-03-01T04:41:20;1.90;99.90
34095;DHT22;20372;47.080;15.410;2023-03-01T04:43:46;1.90;99.90
34095;DHT22;20372;47.080;15.410;2023-03-01T04:46:12;1.90;99.90
34095;DHT22;20372;47.080;15.410;2023-03-01T04:48:39;1.90;99.90
34095;DHT22;20372;47.080;15.410;2023-03-01T04:51:06;1.80;99.90
34095;DHT22;20372;47.080;15.410;2023-03-01T04:53:31;1.80;99.90
34095;DHT22;20372;47.080;15.410;2023-03-01T04:55:57;1.80;99.90
34095;DHT22;20372;47.080;15.410;2023-03-01T04:58:24;1.80;99.90
34095;DHT22;20372;47.080;15.410;2023-03-01T05:00:49;1.80;99.90
34095;DHT22;20372;47.080;15.410;2023-03-01T05:03:15;1.80;99.90
34095;DHT22;20372;47.080;15.410;2023-03-01T05:05:44;1.80;99.90
34095;DHT22;20372;47.080;15.410;2023-03-01T05:08:10;1.80;99.90
34095;DHT22;20372;47.080;15.410;2023-03-01T05:10:46;1.80;99.90
34095;DHT22;20372;47.080;15.410;2023-03-01T05:13:13;1.80;99.90
34095;DHT22;20372;47.080;15.410;2023-03-01T05:15:46;1.90;99.90
34095;DHT22;20372;47.080;15.410;2023-03-01T05:18:12;1.80;99.90
34095;DHT22;20372;47.080;15.410;2023-03-01T05:20:37;1.80;99.90
34095;DHT22;20372;47.080;15.410;2023-03-01T05:23:03;1.80;99.90
34095;DHT22;20372;47.080;15.410;2023-03-01T05:25:31;1.80;99.90
34095;DHT22;20372;47.080;15.410;2023-03-01T05:27:58;1.90;99.90
34095;DHT22;20372;47.080;15.410;2023-03-01T05:30:24;1.90;99.90
34095;DHT22;20372;47.080;15.410;2023-03-01T05:32:50;1.90;99.90
34095;DHT22;20372;47.080;15.410;2023-03-01T05:35:20;2.00;99.90
34095;DHT22;20372;47.080;15.410;2023-03-01T05:37:47;2.00;99.90
34095;DHT22;20372;47.080;15.410;2023-03-01T05:40:15;2.00;99.90
34095;DHT22;20372;47.080;15.410;2023-03-01T05:42:42;2.20;99.90
34095;DHT22;20372;47.080;15.410;2023-03-01T05:45:08;2.20;99.90
34095;DHT22;20372;47.080;15.410;2023-03-01T05:47:35;2.30;99.90
34095;DHT22;20372;47.080;15.410;2023-03-01T05:50:01;2.30;99.90
34095;DHT22;20372;47.080;15.410;2023-03-01T05:52:26;2.40;99.90
34095;DHT22;20372;47.080;15.410;2023-03-01T05:54:52;2.50;99.90
34095;DHT22;20372;47.080;15.410;2023-03-01T05:57:17;2.50;99.90
34095;DHT22;20372;47.080;15.410;2023-03-01T05:59:43;2.50;99.90
34095;DHT22;20372;47.080;15.410;2023-03-01T06:02:09;2.50;99.90
34095;DHT22;20372;47.080;15.410;2023-03-01T06:04:34;2.50;99.90
34095;DHT22;20372;47.080;15.410;2023-03-01T06:07:00;2.50;99.90
34095;DHT22;20372;47.080;15.410;2023-03-01T06:09:25;2.50;99.90
34095;DHT22;20372;47.080;15.410;2023-03-01T06:11:51;2.70;99.90
34095;DHT22;20372;47.080;15.410;2023-03-01T06:14:16;2.70;99.90
34095;DHT22;20372;47.080;15.410;2023-03-01T06:16:42;2.70;99.90
34095;DHT22;20372;47.080;15.410;2023-03-01T06:19:07;2.70;99.90
34095;DHT22;20372;47.080;15.410;2023-03-01T06:21:33;2.70;99.90
34095;DHT22;20372;47.080;15.410;2023-03-01T06:23:59;2.60;99.90
34095;DHT22;20372;47.080;15.410;2023-03-01T06:26:24;2.60;99.90
34095;DHT22;20372;47.080;15.410;2023-03-01T06:28:50;2.50;99.90
34095;DHT22;20372;47.080;15.410;2023-03-01T06:31:15;2.70;99.90
34095;DHT22;20372;47.080;15.410;2023-03-01T06:33:41;2.70;99.90
34095;DHT22;20372;47.080;15.410;2023-03-01T06:36:07;2.80;99.90
34095;DHT22;20372;47.080;15.410;2023-03-01T06:38:32;2.90;99.90
34095;DHT22;20372;47.080;15.410;2023-03-01T06:40:58;2.90;99.90
34095;DHT22;20372;47.080;15.410;2023-03-01T06:43:24;2.90;99.90
34095;DHT22;20372;47.080;15.410;2023-03-01T06:45:50;3.00;99.90
34095;DHT22;20372;47.080;15.410;2023-03-01T06:48:16;3.00;99.90
34095;DHT22;20372;47.080;15.410;2023-03-01T06:50:41;2.10;99.90
34095;DHT22;20372;47.080;15.410;2023-03-01T06:53:07;3.00;99.90
34095;DHT22;20372;47.080;15.410;2023-03-01T06:55:32;3.00;99.90
34095;DHT22;20372;47.080;15.410;2023-03-01T06:57:59;3.10;99.90
34095;DHT22;20372;47.080;15.410;2023-03-01T07:00:25;3.00;99.90
34095;DHT22;20372;47.080;15.410;2023-03-01T07:02:51;3.00;99.80
34095;DHT22;20372;47.080;15.410;2023-03-01T07:05:17;3.00;99.80
34095;DHT22;20372;47.080;15.410;2023-03-01T07:07:42;2.90;99.90
34095;DHT22;20372;47.080;15.410;2023-03-01T07:10:08;3.10;99.90
34095;DHT22;20372;47.080;15.410;2023-03-01T07:12:34;3.30;99.90
34095;DHT22;20372;47.080;15.410;2023-03-01T07:14:59;3.40;99.90
34095;DHT22;20372;47.080;15.410;2023-03-01T07:17:25;3.40;99.90
34095;DHT22;20372;47.080;15.410;2023-03-01T07:19:50;3.30;99.90
34095;DHT22;20372;47.080;15.410;2023-03-01T07:22:16;3.40;99.90
34095;DHT22;20372;47.080;15.410;2023-03-01T07:24:42;3.20;99.90
34095;DHT22;20372;47.080;15.410;2023-03-01T07:27:08;3.10;99.90
34095;DHT22;20372;47.080;15.410;2023-03-01T07:29:34;3.20;99.90
34095;DHT22;20372;47.080;15.410;2023-03-01T07:32:02;3.30;99.90
34095;DHT22;20372;47.080;15.410;2023-03-01T07:34:28;3.40;99.90
34095;DHT22;20372;47.080;15.410;2023-03-01T07:36:53;3.40;99.90
34095;DHT22;20372;47.080;15.410;2023-03-01T07:39:19;3.30;99.30
34095;DHT22;20372;47.080;15.410;2023-03-01T07:41:44;3.20;99.00
34095;DHT22;20372;47.080;15.410;2023-03-01T07:44:10;3.30;99.40
34095;DHT22;20372;47.080;15.410;2023-03-01T07:46:36;3.20;98.90
34095;DHT22;20372;47.080;15.410;2023-03-01T07:49:02;3.30;99.00
34095;DHT22;20372;47.080;15.410;2023-03-01T07:51:27;3.50;99.30
34095;DHT22;20372;47.080;15.410;2023-03-01T07:53:53;3.40;99.20
34095;DHT22;20372;47.080;15.410;2023-03-01T07:56:19;3.40;99.00
34095;DHT22;20372;47.080;15.410;2023-03-01T07:58:45;3.40;99.90
34095;DHT22;20372;47.080;15.410;2023-03-01T08:01:12;3.50;99.60
34095;DHT22;20372;47.080;15.410;2023-03-01T08:03:38;3.30;99.70
34095;DHT22;20372;47.080;15.410;2023-03-01T08:06:04;3.30;99.40
34095;DHT22;20372;47.080;15.410;2023-03-01T08:08:31;3.40;99.30
34095;DHT22;20372;47.080;15.410;2023-03-01T08:10:57;3.20;99.40
34095;DHT22;20372;47.080;15.410;2023-03-01T08:13:23;3.50;99.90
34095;DHT22;20372;47.080;15.410;2023-03-01T08:15:49;3.70;99.80
34095;DHT22;20372;47.080;15.410;2023-03-01T08:18:16;3.40;97.60
34095;DHT22;20372;47.080;15.410;2023-03-01T08:20:42;3.30;99.30
34095;DHT22;20372;47.080;15.410;2023-03-01T08:23:08;3.50;98.10
34095;DHT22;20372;47.080;15.410;2023-03-01T08:25:33;3.70;98.80
34095;DHT22;20372;47.080;15.410;2023-03-01T08:27:59;3.80;98.00
34095;DHT22;20372;47.080;15.410;2023-03-01T08:30:25;3.80;95.10
34095;DHT22;20372;47.080;15.410;2023-03-01T08:32:50;3.60;94.90
34095;DHT22;20372;47.080;15.410;2023-03-01T08:35:16;3.90;95.10
34095;DHT22;20372;47.080;15.410;2023-03-01T08:37:41;3.90;93.90
34095;DHT22;20372;47.080;15.410;2023-03-01T08:40:07;3.50;94.70
34095;DHT22;20372;47.080;15.410;2023-03-01T08:42:35;3.40;94.50
34095;DHT22;20372;47.080;15.410;2023-03-01T08:45:01;3.50;95.40
34095;DHT22;20372;47.080;15.410;2023-03-01T08:47:27;3.90;96.10
34095;DHT22;20372;47.080;15.410;2023-03-01T08:49:52;4.20;96.00
34095;DHT22;20372;47.080;15.410;2023-03-01T08:52:19;4.40;94.70
34095;DHT22;20372;47.080;15.410;2023-03-01T08:54:44;4.50;93.40
34095;DHT22;20372;47.080;15.410;2023-03-01T08:57:10;4.40;93.30
34095;DHT22;20372;47.080;15.410;2023-03-01T08:59:35;4.10;94.20
34095;DHT22;20372;47.080;15.410;2023-03-01T09:02:03;3.80;93.60
34095;DHT22;20372;47.080;15.410;2023-03-01T09:04:29;4.00;93.70
34095;DHT22;20372;47.080;15.410;2023-03-01T09:06:54;3.90;94.10
34095;DHT22;20372;47.080;15.410;2023-03-01T09:09:20;4.00;94.10
34095;DHT22;20372;47.080;15.410;2023-03-01T09:11:46;3.80;94.10
34095;DHT22;20372;47.080;15.410;2023-03-01T09:14:14;4.10;95.00
34095;DHT22;20372;47.080;15.410;2023-03-01T09:16:40;4.40;94.60
34095;DHT22;20372;47.080;15.410;2023-03-01T09:19:05;4.70;95.30
34095;DHT22;20372;47.080;15.410;2023-03-01T09:21:31;4.80;94.00
34095;DHT22;20372;47.080;15.410;2023-03-01T09:23:57;4.80;94.10
34095;DHT22;20372;47.080;15.410;2023-03-01T09:26:23;4.90;94.20
34095;DHT22;20372;47.080;15.410;2023-03-01T09:28:49;4.60;93.00
34095;DHT22;20372;47.080;15.410;2023-03-01T09:31:16;4.20;94.10
34095;DHT22;20372;47.080;15.410;2023-03-01T09:33:42;4.10;94.70
34095;DHT22;20372;47.080;15.410;2023-03-01T09:36:10;4.20;94.40
34095;DHT22;20372;47.080;15.410;2023-03-01T09:38:36;3.60;95.10
34095;DHT22;20372;47.080;15.410;2023-03-01T09:41:01;3.60;95.90
34095;DHT22;20372;47.080;15.410;2023-03-01T09:45:55;3.60;96.10
34095;DHT22;20372;47.080;15.410;2023-03-01T09:48:23;3.40;95.90
34095;DHT22;20372;47.080;15.410;2023-03-01T09:50:50;3.50;96.10
34095;DHT22;20372;47.080;15.410;2023-03-01T09:53:18;3.50;96.00
34095;DHT22;20372;47.080;15.410;2023-03-01T10:00:53;3.80;95.80
34095;DHT22;20372;47.080;15.410;2023-03-01T10:03:32;5.50;96.50
34095;DHT22;20372;47.080;15.410;2023-03-01T10:06:00;4.50;95.20
34095;DHT22;20372;47.080;15.410;2023-03-01T10:08:28;4.30;94.40
34095;DHT22;20372;47.080;15.410;2023-03-01T10:10:56;4.50;95.10
34095;DHT22;20372;47.080;15.410;2023-03-01T10:13:28;4.10;94.40
34095;DHT22;20372;47.080;15.410;2023-03-01T10:15:56;3.90;94.40
34095;DHT22;20372;47.080;15.410;2023-03-01T10:18:24;4.00;94.80
34095;DHT22;20372;47.080;15.410;2023-03-01T10:23:35;4.00;95.00
34095;DHT22;20372;47.080;15.410;2023-03-01T10:31:15;4.30;94.80
34095;DHT22;20372;47.080;15.410;2023-03-01T10:33:42;4.20;95.10
34095;DHT22;20372;47.080;15.410;2023-03-01T10:36:08;4.30;95.20
34095;DHT22;20372;47.080;15.410;2023-03-01T10:38:47;4.00;95.50
34095;DHT22;20372;47.080;15.410;2023-03-01T10:41:12;4.20;95.40
34095;DHT22;20372;47.080;15.410;2023-03-01T10:46:23;4.30;95.50
34095;DHT22;20372;47.080;15.410;2023-03-01T10:51:45;4.20;95.90
34095;DHT22;20372;47.080;15.410;2023-03-01T10:54:18;4.20;96.60
34095;DHT22;20372;47.080;15.410;2023-03-01T10:56:54;4.20;96.40
34095;DHT22;20372;47.080;15.410;2023-03-01T10:59:31;4.20;96.30
34095;DHT22;20372;47.080;15.410;2023-03-01T11:07:23;4.60;95.90
34095;DHT22;20372;47.080;15.410;2023-03-01T11:09:49;4.60;95.90
34095;DHT22;20372;47.080;15.410;2023-03-01T11:12:15;4.70;95.60
34095;DHT22;20372;47.080;15.410;2023-03-01T11:14:50;4.40;96.30
34095;DHT22;20372;47.080;15.410;2023-03-01T11:17:25;4.30;96.80
34095;DHT22;20372;47.080;15.410;2023-03-01T11:22:36;4.80;97.30
34095;DHT22;20372;47.080;15.410;2023-03-01T11:25:02;4.90;97.40
34095;DHT22;20372;47.080;15.410;2023-03-01T11:27:28;5.00;97.10
34095;DHT22;20372;47.080;15.410;2023-03-01T11:30:00;5.20;96.70
34095;DHT22;20372;47.080;15.410;2023-03-01T11:32:31;5.20;96.00
34095;DHT22;20372;47.080;15.410;2023-03-01T11:35:04;5.10;96.20
34095;DHT22;20372;47.080;15.410;2023-03-01T11:40:12;4.40;97.40
34095;DHT22;20372;47.080;15.410;2023-03-01T11:45:23;4.70;97.40
34095;DHT22;20372;47.080;15.410;2023-03-01T11:50:34;4.50;97.90
34095;DHT22;20372;47.080;15.410;2023-03-01T11:53:20;4.70;97.50
34095;DHT22;20372;47.080;15.410;2023-03-01T11:55:58;4.60;97.60
34095;DHT22;20372;47.080;15.410;2023-03-01T12:03:47;4.50;97.40
34095;DHT22;20372;47.080;15.410;2023-03-01T12:14:10;4.90;96.20
34095;DHT22;20372;47.080;15.410;2023-03-01T12:34:22;5.50;95.20
34095;DHT22;20372;47.080;15.410;2023-03-01T12:42:01;5.90;94.50
34095;DHT22;20372;47.080;15.410;2023-03-01T12:46:58;6.50;93.50
34095;DHT22;20372;47.080;15.410;2023-03-01T12:49:33;6.00;94.10
34095;DHT22;20372;47.080;15.410;2023-03-01T12:52:11;5.90;94.60
34095;DHT22;20372;47.080;15.410;2023-03-01T12:54:40;5.80;94.30
34095;DHT22;20372;47.080;15.410;2023-03-01T12:57:12;6.20;94.30
34095;DHT22;20372;47.080;15.410;2023-03-01T13:02:34;6.20;94.00
34095;DHT22;20372;47.080;15.410;2023-03-01T13:05:07;6.10;94.00
34095;DHT22;20372;47.080;15.410;2023-03-01T13:10:31;6.00;94.20
34095;DHT22;20372;47.080;15.410;2023-03-01T13:13:03;6.10;94.70
34095;DHT22;20372;47.080;15.410;2023-03-01T13:15:34;6.30;94.40
34095;DHT22;20372;47.080;15.410;2023-03-01T13:25:32;6.40;94.30
34095;DHT22;20372;47.080;15.410;2023-03-01T13:30:42;6.80;93.60
34095;DHT22;20372;47.080;15.410;2023-03-01T13:35:49;6.50;94.30
34095;DHT22;20372;47.080;15.410;2023-03-01T13:40:59;6.60;94.30
34095;DHT22;20372;47.080;15.410;2023-03-01T13:43:32;6.60;94.30
34095;DHT22;20372;47.080;15.410;2023-03-01T13:45:59;6.70;94.50
34095;DHT22;20372;47.080;15.410;2023-03-01T13:48:27;6.90;94.20
34095;DHT22;20372;47.080;15.410;2023-03-01T13:51:00;7.00;93.20
34095;DHT22;20372;47.080;15.410;2023-03-01T13:53:29;6.90;93.70
34095;DHT22;20372;47.080;15.410;2023-03-01T13:55:57;7.00;93.70
34095;DHT22;20372;47.080;15.410;2023-03-01T13:58:25;7.10;94.40
34095;DHT22;20372;47.080;15.410;2023-03-01T14:00:58;7.00;93.90
34095;DHT22;20372;47.080;15.410;2023-03-01T14:03:24;6.70;93.60
34095;DHT22;20372;47.080;15.410;2023-03-01T14:06:09;6.80;94.40
34095;DHT22;20372;47.080;15.410;2023-03-01T14:08:37;6.90;94.90
34095;DHT22;20372;47.080;15.410;2023-03-01T14:13:35;7.00;94.70
34095;DHT22;20372;47.080;15.410;2023-03-01T14:16:08;7.10;95.10
34095;DHT22;20372;47.080;15.410;2023-03-01T14:18:38;7.10;95.10
34095;DHT22;20372;47.080;15.410;2023-03-01T14:21:08;7.10;95.60
34095;DHT22;20372;47.080;15.410;2023-03-01T14:23:34;6.90;93.70
34095;DHT22;20372;47.080;15.410;2023-03-01T14:26:00;6.90;94.40
34095;DHT22;20372;47.080;15.410;2023-03-01T14:28:30;7.00;94.30
34095;DHT22;20372;47.080;15.410;2023-03-01T14:30:59;7.20;95.10
34095;DHT22;20372;47.080;15.410;2023-03-01T14:35:54;7.30;95.10
34095;DHT22;20372;47.080;15.410;2023-03-01T14:38:22;7.20;95.70
34095;DHT22;20372;47.080;15.410;2023-03-01T14:40:56;7.20;96.70
34095;DHT22;20372;47.080;15.410;2023-03-01T14:43:22;7.10;96.10
34095;DHT22;20372;47.080;15.410;2023-03-01T14:45:49;6.90;95.80
34095;DHT22;20372;47.080;15.410;2023-03-01T14:48:16;6.70;96.10
34095;DHT22;20372;47.080;15.410;2023-03-01T14:50:42;6.70;96.80
34095;DHT22;20372;47.080;15.410;2023-03-01T14:53:20;6.50;96.50
34095;DHT22;20372;47.080;15.410;2023-03-01T14:55:54;6.30;97.40
34095;DHT22;20372;47.080;15.410;2023-03-01T14:58:21;6.30;98.00
34095;DHT22;20372;47.080;15.410;2023-03-01T15:03:32;6.30;98.80
34095;DHT22;20372;47.080;15.410;2023-03-01T15:06:02;6.30;98.40
34095;DHT22;20372;47.080;15.410;2023-03-01T15:08:28;6.40;98.60
34095;DHT22;20372;47.080;15.410;2023-03-01T15:11:04;6.30;99.90
34095;DHT22;20372;47.080;15.410;2023-03-01T15:13:31;6.30;99.90
34095;DHT22;20372;47.080;15.410;2023-03-01T15:18:28;6.10;99.90
34095;DHT22;20372;47.080;15.410;2023-03-01T15:20:54;6.10;99.90
34095;DHT22;20372;47.080;15.410;2023-03-01T15:23:24;6.00;99.90
34095;DHT22;20372;47.080;15.410;2023-03-01T15:25:53;6.00;99.90
34095;DHT22;20372;47.080;15.410;2023-03-01T15:28:41;6.00;99.90
34095;DHT22;20372;47.080;15.410;2023-03-01T15:31:27;6.00;99.90
34095;DHT22;20372;47.080;15.410;2023-03-01T15:34:07;6.00;99.90
34095;DHT22;20372;47.080;15.410;2023-03-01T15:36:36;5.90;99.90
34095;DHT22;20372;47.080;15.410;2023-03-01T15:39:04;6.00;99.90
34095;DHT22;20372;47.080;15.410;2023-03-01T15:41:32;6.00;99.90
34095;DHT22;20372;47.080;15.410;2023-03-01T15:43:58;6.00;99.90
34095;DHT22;20372;47.080;15.410;2023-03-01T15:48:52;5.70;99.90
34095;DHT22;20372;47.080;15.410;2023-03-01T15:51:20;5.80;99.90
34095;DHT22;20372;47.080;15.410;2023-03-01T15:53:51;5.80;99.90
34095;DHT22;20372;47.080;15.410;2023-03-01T15:56:18;5.60;99.90
34095;DHT22;20372;47.080;15.410;2023-03-01T15:58:44;5.60;99.90
34095;DHT22;20372;47.080;15.410;2023-03-01T16:01:13;5.70;99.90
34095;DHT22;20372;47.080;15.410;2023-03-01T16:03:39;5.70;99.90
34095;DHT22;20372;47.080;15.410;2023-03-01T16:06:05;5.70;99.90
34095;DHT22;20372;47.080;15.410;2023-03-01T16:08:30;5.70;99.90
34095;DHT22;20372;47.080;15.410;2023-03-01T16:10:56;5.70;99.90
34095;DHT22;20372;47.080;15.410;2023-03-01T16:13:22;5.70;99.90
34095;DHT22;20372;47.080;15.410;2023-03-01T16:15:47;5.70;99.90
34095;DHT22;20372;47.080;15.410;2023-03-01T16:18:13;5.60;99.90
34095;DHT22;20372;47.080;15.410;2023-03-01T16:20:38;5.60;99.90
34095;DHT22;20372;47.080;15.410;2023-03-01T16:23:05;5.60;99.90
34095;DHT22;20372;47.080;15.410;2023-03-01T16:25:31;5.60;99.90
34095;DHT22;20372;47.080;15.410;2023-03-01T16:27:57;5.60;99.90
34095;DHT22;20372;47.080;15.410;2023-03-01T16:30:26;5.60;99.90
34095;DHT22;20372;47.080;15.410;2023-03-01T16:32:52;5.60;99.90
34095;DHT22;20372;47.080;15.410;2023-03-01T16:35:19;5.60;99.90
34095;DHT22;20372;47.080;15.410;2023-03-01T16:37:46;5.60;99.90
34095;DHT22;20372;47.080;15.410;2023-03-01T16:40:17;5.60;99.90
34095;DHT22;20372;47.080;15.410;2023-03-01T16:42:42;5.60;99.90
34095;DHT22;20372;47.080;15.410;2023-03-01T16:45:08;5.60;99.90
34095;DHT22;20372;47.080;15.410;2023-03-01T16:47:34;5.50;99.90
34095;DHT22;20372;47.080;15.410;2023-03-01T16:50:00;5.50;99.90
34095;DHT22;20372;47.080;15.410;2023-03-01T16:52:25;5.50;99.90
34095;DHT22;20372;47.080;15.410;2023-03-01T16:54:51;5.40;99.90
34095;DHT22;20372;47.080;15.410;2023-03-01T16:57:17;5.40;99.90
34095;DHT22;20372;47.080;15.410;2023-03-01T16:59:42;5.30;99.90
34095;DHT22;20372;47.080;15.410;2023-03-01T17:02:09;5.30;99.90
34095;DHT22;20372;47.080;15.410;2023-03-01T17:04:36;5.30;99.90
34095;DHT22;20372;47.080;15.410;2023-03-01T17:07:02;5.30;99.90
34095;DHT22;20372;47.080;15.410;2023-03-01T17:09:27;5.40;99.90
34095;DHT22;20372;47.080;15.410;2023-03-01T17:11:53;5.30;99.90
34095;DHT22;20372;47.080;15.410;2023-03-01T17:14:19;5.30;99.90
34095;DHT22;20372;47.080;15.410;2023-03-01T17:16:45;5.30;99.90
34095;DHT22;20372;47.080;15.410;2023-03-01T17:19:11;5.30;99.90
34095;DHT22;20372;47.080;15.410;2023-03-01T17:21:37;5.30;99.90
34095;DHT22;20372;47.080;15.410;2023-03-01T17:24:03;5.20;99.90
34095;DHT22;20372;47.080;15.410;2023-03-01T17:26:29;5.10;99.90
34095;DHT22;20372;47.080;15.410;2023-03-01T17:28:55;5.00;99.90